createdAt,value
2023-04-12T00:01:40.404Z,10.53
2023-04-12T00:04:08.692Z,14.17
2023-04-12T00:06:36.313Z,12.33
2023-04-12T00:09:04.417Z,12.13
2023-04-12T00:11:32.042Z,12.07
2023-04-12T00:14:00.046Z,13.30
2023-04-12T00:16:28.170Z,11.00
2023-04-12T00:18:57.424Z,13.60
2023-04-12T00:21:28.654Z,13.60
2023-04-12T00:23:57.079Z,10.20
2023-04-12T00:26:25.612Z,10.00
2023-04-12T00:28:56.155Z,11.10
2023-04-12T00:31:24.012Z,12.00
2023-04-12T00:33:51.880Z,9.97
2023-04-12T00:36:19.490Z,11.50
2023-04-12T00:38:47.437Z,9.23
2023-04-12T00:41:15.445Z,10.87
2023-04-12T00:43:42.909Z,10.70
2023-04-12T00:46:09.860Z,9.70
2023-04-12T00:48:37.931Z,11.37
2023-04-12T00:51:07.059Z,9.10
2023-04-12T00:53:34.544Z,10.73
2023-04-12T00:56:03.690Z,10.17
2023-04-12T00:58:31.922Z,10.43
2023-04-12T01:01:00.396Z,13.43
2023-04-12T01:03:27.945Z,9.90
2023-04-12T01:06:22.833Z,11.97
2023-04-12T01:09:24.098Z,11.70
2023-04-12T01:12:09.161Z,10.80
2023-04-12T01:14:46.186Z,10.90
2023-04-12T01:17:14.651Z,10.60
2023-04-12T01:19:57.990Z,13.87
2023-04-12T01:22:38.802Z,15.77
2023-04-12T01:25:16.318Z,12.80
2023-04-12T01:27:47.913Z,9.80
2023-04-12T01:30:17.016Z,11.30
2023-04-12T01:32:45.371Z,10.63
2023-04-12T01:35:12.184Z,10.53
2023-04-12T01:37:40.396Z,11.13
2023-04-12T01:40:10.733Z,11.27
2023-04-12T01:42:38.451Z,10.00
2023-04-12T01:45:09.559Z,10.93
2023-04-12T01:47:37.234Z,10.00
2023-04-12T01:50:25.942Z,10.80
2023-04-12T01:53:16.862Z,11.37
2023-04-12T01:55:45.990Z,13.17
2023-04-12T01:58:12.825Z,12.77
2023-04-12T02:00:39.917Z,10.30
2023-04-12T02:03:07.566Z,14.43
2023-04-12T02:05:34.886Z,9.40
2023-04-12T02:08:04.249Z,12.37
2023-04-12T02:10:31.932Z,12.87
2023-04-12T02:13:02.511Z,10.80
2023-04-12T02:15:29.656Z,9.87
2023-04-12T02:17:59.736Z,13.20
2023-04-12T02:20:28.189Z,11.80
2023-04-12T02:22:55.884Z,10.00
2023-04-12T02:25:24.062Z,9.33
2023-04-12T02:27:52.083Z,10.60
2023-04-12T02:30:21.366Z,10.47
2023-04-12T02:32:48.677Z,10.80
2023-04-12T02:35:20.280Z,10.37
2023-04-12T02:37:48.719Z,9.07
2023-04-12T02:40:16.575Z,9.50
2023-04-12T02:42:44.596Z,11.10
2023-04-12T02:45:12.664Z,9.80
2023-04-12T02:47:41.295Z,10.30
2023-04-12T02:50:10.097Z,10.97
2023-04-12T02:52:38.412Z,11.70
2023-04-12T02:55:08.649Z,10.57
2023-04-12T02:57:37.076Z,11.30
2023-04-12T03:00:12.386Z,10.50
2023-04-12T03:02:40.277Z,10.13
2023-04-12T03:05:10.248Z,9.63
2023-04-12T03:07:38.327Z,10.07
2023-04-12T03:10:09.388Z,9.27
2023-04-12T03:12:37.404Z,9.77
2023-04-12T03:15:06.031Z,9.27
2023-04-12T03:17:33.971Z,12.97
2023-04-12T03:20:08.040Z,13.27
2023-04-12T03:22:39.621Z,11.77
2023-04-12T03:25:10.099Z,10.50
2023-04-12T03:27:37.566Z,12.60
2023-04-12T03:30:07.891Z,14.43
2023-04-12T03:32:35.717Z,10.80
2023-04-12T03:35:03.306Z,10.97
2023-04-12T03:37:31.876Z,12.63
2023-04-12T03:40:00.233Z,13.83
2023-04-12T03:42:33.643Z,16.63
2023-04-12T03:45:02.090Z,12.60
2023-04-12T03:47:30.071Z,11.90
2023-04-12T03:50:10.869Z,13.70
2023-04-12T03:52:39.997Z,13.67
2023-04-12T03:55:07.879Z,12.60
2023-04-12T03:57:35.976Z,12.57
2023-04-12T04:00:04.820Z,15.43
2023-04-12T04:02:32.535Z,14.93
2023-04-12T04:05:00.881Z,15.40
2023-04-12T04:07:28.956Z,12.57
2023-04-12T04:09:56.783Z,12.57
2023-04-12T04:12:24.427Z,12.90
2023-04-12T04:14:52.685Z,10.90
2023-04-12T04:17:20.724Z,11.97
2023-04-12T04:19:48.667Z,13.93
2023-04-12T04:22:17.899Z,14.37
2023-04-12T04:24:46.067Z,10.77
2023-04-12T04:27:15.685Z,11.27
2023-04-12T04:29:46.769Z,12.53
2023-04-12T04:32:17.610Z,12.60
2023-04-12T04:34:45.242Z,14.03
2023-04-12T04:37:13.378Z,12.10
2023-04-12T04:39:41.467Z,11.07
2023-04-12T04:42:09.779Z,11.93
2023-04-12T04:44:37.906Z,11.83
2023-04-12T04:47:07.036Z,12.50
2023-04-12T04:49:35.342Z,16.30
2023-04-12T04:52:03.097Z,13.90
2023-04-12T04:54:33.174Z,12.73
2023-04-12T04:57:01.742Z,13.30
2023-04-12T04:59:33.728Z,11.90
2023-04-12T05:02:01.469Z,11.50
2023-04-12T05:04:29.129Z,16.07
2023-04-12T05:06:57.382Z,14.23
2023-04-12T05:09:25.500Z,20.17
2023-04-12T05:11:53.700Z,11.37
2023-04-12T05:14:23.324Z,15.37
2023-04-12T05:16:52.273Z,11.83
2023-04-12T05:19:20.209Z,13.63
2023-04-12T05:21:48.164Z,12.20
2023-04-12T05:24:16.061Z,14.40
2023-04-12T05:26:44.155Z,14.10
2023-04-12T05:29:12.505Z,15.03
2023-04-12T05:31:39.990Z,13.30
2023-04-12T05:34:08.063Z,16.33
2023-04-12T05:36:36.392Z,12.33
2023-04-12T05:39:04.090Z,13.00
2023-04-12T05:41:31.890Z,13.47
2023-04-12T05:43:59.615Z,12.67
2023-04-12T05:46:27.989Z,15.40
2023-04-12T05:48:57.105Z,13.10
2023-04-12T05:51:37.820Z,15.83
2023-04-12T05:54:09.254Z,14.23
2023-04-12T05:56:37.076Z,16.00
2023-04-12T05:59:05.291Z,15.17
2023-04-12T06:01:34.317Z,14.23
2023-04-12T06:04:06.083Z,18.07
2023-04-12T06:06:33.748Z,13.97
2023-04-12T06:09:10.591Z,14.23
2023-04-12T06:11:39.320Z,18.58
2023-04-12T06:14:11.665Z,16.10
2023-04-12T06:16:41.957Z,14.93
2023-04-12T06:19:11.244Z,15.60
2023-04-12T06:21:38.728Z,15.97
2023-04-12T06:24:08.872Z,15.00
2023-04-12T06:26:39.629Z,14.43
2023-04-12T06:29:08.070Z,13.57
2023-04-12T06:31:35.437Z,13.60
2023-04-12T06:34:04.627Z,15.23
2023-04-12T06:36:32.654Z,13.67
2023-04-12T06:39:00.693Z,13.53
2023-04-12T06:41:28.873Z,13.87
2023-04-12T06:43:56.968Z,15.93
2023-04-12T06:46:28.582Z,17.87
2023-04-12T06:48:56.723Z,13.00
2023-04-12T06:51:24.520Z,13.00
2023-04-12T06:53:52.533Z,17.60
2023-04-12T06:56:20.406Z,14.07
2023-04-12T06:58:48.319Z,16.00
2023-04-12T07:01:16.306Z,14.70
2023-04-12T07:03:44.206Z,14.80
2023-04-12T07:06:24.214Z,13.70
2023-04-12T07:08:53.698Z,13.63
2023-04-12T07:11:25.343Z,13.77
2023-04-12T07:13:53.057Z,18.03
2023-04-12T07:16:20.906Z,18.87
2023-04-12T07:18:49.615Z,15.30
2023-04-12T07:21:18.030Z,13.77
2023-04-12T07:23:46.904Z,16.17
2023-04-12T07:26:15.182Z,16.47
2023-04-12T07:28:42.976Z,15.80
2023-04-12T07:31:11.123Z,16.87
2023-04-12T07:33:40.700Z,14.23
2023-04-12T07:36:12.404Z,15.13
2023-04-12T07:38:40.149Z,14.10
2023-04-12T07:41:08.317Z,22.20
2023-04-12T07:43:36.054Z,16.43
2023-04-12T07:46:08.001Z,13.57
2023-04-12T07:48:36.250Z,14.40
2023-04-12T07:51:05.175Z,14.93
2023-04-12T07:53:33.947Z,15.50
2023-04-12T07:56:04.479Z,15.13
2023-04-12T07:58:32.527Z,15.97
2023-04-12T08:01:01.442Z,17.00
2023-04-12T08:03:29.301Z,12.97
2023-04-12T08:05:57.103Z,12.73
2023-04-12T08:08:27.490Z,10.13
2023-04-12T08:10:58.860Z,10.17
2023-04-12T08:13:27.349Z,8.47
2023-04-12T08:15:54.965Z,9.93
2023-04-12T08:18:23.071Z,11.50
2023-04-12T08:20:51.466Z,10.27
2023-04-12T08:23:19.494Z,13.23
2023-04-12T08:25:47.193Z,10.63
2023-04-12T08:28:14.920Z,9.87
2023-04-12T08:30:43.384Z,10.23
2023-04-12T08:33:10.919Z,12.80
2023-04-12T08:35:40.078Z,12.80
2023-04-12T08:38:11.931Z,7.13
2023-04-12T08:40:41.364Z,8.87
2023-04-12T08:43:12.227Z,9.03
2023-04-12T08:45:40.459Z,11.67
2023-04-12T08:48:11.682Z,9.37
2023-04-12T08:50:39.726Z,8.40
2023-04-12T08:53:07.503Z,7.90
2023-04-12T08:55:39.794Z,8.20
2023-04-12T08:58:08.079Z,7.87
2023-04-12T09:00:35.582Z,5.90
2023-04-12T09:03:03.799Z,6.97
2023-04-12T09:05:32.227Z,6.77
2023-04-12T09:08:02.341Z,8.57
2023-04-12T09:10:36.913Z,9.30
2023-04-12T09:13:06.042Z,6.13
2023-04-12T09:15:34.956Z,6.87
2023-04-12T09:18:06.871Z,5.77
2023-04-12T09:20:35.138Z,9.47
2023-04-12T09:23:14.094Z,5.57
2023-04-12T09:25:45.330Z,6.93
2023-04-12T09:28:27.769Z,4.60
2023-04-12T09:30:55.779Z,6.20
2023-04-12T09:33:40.582Z,6.47
2023-04-12T09:36:17.460Z,5.57
2023-04-12T09:39:05.258Z,4.90
2023-04-12T09:41:33.129Z,6.33
2023-04-12T09:44:01.183Z,7.07
2023-04-12T09:46:28.623Z,6.60
2023-04-12T09:48:59.670Z,6.60
2023-04-12T09:51:53.985Z,5.23
2023-04-12T09:54:22.102Z,7.77
2023-04-12T09:56:50.073Z,6.23
2023-04-12T09:59:18.021Z,9.57
2023-04-12T10:01:45.152Z,6.03
2023-04-12T10:04:12.945Z,4.97
2023-04-12T10:06:41.794Z,7.33
2023-04-12T10:09:09.210Z,6.17
2023-04-12T10:11:37.727Z,6.50
2023-04-12T10:14:05.681Z,5.30
2023-04-12T10:16:34.811Z,6.93
2023-04-12T10:19:03.068Z,5.13
2023-04-12T10:21:34.151Z,5.67
2023-04-12T10:24:02.450Z,4.87
2023-04-12T10:26:30.371Z,5.40
2023-04-12T10:29:26.023Z,5.10
2023-04-12T10:32:26.764Z,5.13
2023-04-12T10:34:58.581Z,6.90
2023-04-12T10:38:13.290Z,5.87
2023-04-12T10:40:41.894Z,4.10
2023-04-12T10:43:26.687Z,5.07
2023-04-12T10:45:54.155Z,5.57
2023-04-12T10:48:32.782Z,5.53
2023-04-12T10:51:18.017Z,6.93
2023-04-12T10:53:46.963Z,5.27
2023-04-12T10:56:32.853Z,5.50
2023-04-12T10:59:04.341Z,6.43
2023-04-12T11:01:31.677Z,5.23
2023-04-12T11:04:25.783Z,6.60
2023-04-12T11:06:53.820Z,6.47
2023-04-12T11:09:42.701Z,6.93
2023-04-12T11:12:15.181Z,7.27
2023-04-12T11:14:51.894Z,7.30
2023-04-12T11:19:49.957Z,10.60
2023-04-12T11:22:18.051Z,5.57
2023-04-12T11:24:46.634Z,8.80
2023-04-12T11:27:13.785Z,6.97
2023-04-12T11:29:41.473Z,6.77
2023-04-12T11:32:14.652Z,9.10
2023-04-12T11:34:43.541Z,9.67
2023-04-12T11:37:11.277Z,7.13
2023-04-12T11:39:49.703Z,7.37
2023-04-12T11:42:20.691Z,8.20
2023-04-12T11:44:57.098Z,7.47
2023-04-12T11:47:27.094Z,7.87
2023-04-12T11:49:58.970Z,6.77
2023-04-12T11:52:33.942Z,8.07
2023-04-12T11:55:05.246Z,7.43
2023-04-12T11:57:32.801Z,7.97
2023-04-12T12:00:00.879Z,12.93
2023-04-12T12:02:41.082Z,9.57
2023-04-12T12:05:14.843Z,8.73
2023-04-12T12:07:42.604Z,9.10
2023-04-12T12:10:14.612Z,12.00
2023-04-12T12:12:48.512Z,9.05
2023-04-12T12:15:21.621Z,9.13
2023-04-12T12:17:52.644Z,9.30
2023-04-12T12:20:21.489Z,9.73
2023-04-12T12:22:49.654Z,8.97
2023-04-12T12:25:20.843Z,14.57
2023-04-12T12:27:50.452Z,14.40
2023-04-12T12:30:18.218Z,15.43
2023-04-12T12:32:46.182Z,14.43
2023-04-12T12:35:14.121Z,9.70
2023-04-12T12:37:52.488Z,9.20
2023-04-12T12:40:26.425Z,11.57
2023-04-12T12:42:55.562Z,10.97
2023-04-12T12:45:24.394Z,11.10
2023-04-12T12:48:02.928Z,9.00
2023-04-12T12:50:34.808Z,9.83
2023-04-12T12:53:02.326Z,13.43
2023-04-12T12:55:30.658Z,10.13
2023-04-12T12:58:06.609Z,14.17
2023-04-12T13:00:35.890Z,10.53
2023-04-12T13:03:04.267Z,11.13
2023-04-12T13:05:32.631Z,11.43
2023-04-12T13:08:00.531Z,8.10
2023-04-12T13:10:31.345Z,11.80
2023-04-12T13:12:59.030Z,12.70
2023-04-12T13:15:27.092Z,14.77
2023-04-12T13:17:54.514Z,13.00
2023-04-12T13:20:23.195Z,11.53
2023-04-12T13:22:51.619Z,9.93
2023-04-12T13:25:22.617Z,11.33
2023-04-12T13:27:50.686Z,11.20
2023-04-12T13:30:22.008Z,13.00
2023-04-12T13:32:49.746Z,15.27
2023-04-12T13:35:17.782Z,10.37
2023-04-12T13:37:45.318Z,13.57
2023-04-12T13:40:13.564Z,11.23
2023-04-12T13:42:41.531Z,9.00
2023-04-12T13:45:12.263Z,11.97
2023-04-12T13:47:39.448Z,10.50
2023-04-12T13:50:10.156Z,10.87
2023-04-12T13:52:38.506Z,11.97
2023-04-12T13:55:08.526Z,12.27
2023-04-12T13:57:36.596Z,11.27
2023-04-12T14:00:05.122Z,10.37
2023-04-12T14:02:33.639Z,10.47
2023-04-12T14:05:01.858Z,11.80
2023-04-12T14:07:29.649Z,13.93
2023-04-12T14:10:00.306Z,11.60
2023-04-12T14:12:28.345Z,9.50
2023-04-12T14:14:55.907Z,13.33
2023-04-12T14:17:23.673Z,11.37
2023-04-12T14:19:51.255Z,10.53
2023-04-12T14:22:18.896Z,11.20
2023-04-12T14:24:46.689Z,11.17
2023-04-12T14:27:15.374Z,12.03
2023-04-12T14:29:45.425Z,12.67
2023-04-12T14:32:13.078Z,15.43
2023-04-12T14:34:42.970Z,15.87
2023-04-12T14:37:13.986Z,15.77
2023-04-12T14:39:41.843Z,17.93
2023-04-12T14:42:09.788Z,18.60
2023-04-12T14:44:37.546Z,14.50
2023-04-12T14:47:05.729Z,9.97
2023-04-12T14:49:34.037Z,13.87
2023-04-12T14:52:02.168Z,18.47
2023-04-12T14:54:30.424Z,12.23
2023-04-12T14:56:58.348Z,11.07
2023-04-12T14:59:27.588Z,11.43
2023-04-12T15:01:55.453Z,10.53
2023-04-12T15:04:23.436Z,11.93
2023-04-12T15:06:51.624Z,15.20
2023-04-12T15:09:19.738Z,13.10
2023-04-12T15:11:49.563Z,17.47
2023-04-12T15:14:20.735Z,22.33
2023-04-12T15:16:52.193Z,18.07
2023-04-12T15:19:23.063Z,12.00
2023-04-12T15:21:57.595Z,13.23
2023-04-12T15:24:25.899Z,19.43
2023-04-12T15:26:53.564Z,21.13
2023-04-12T15:29:22.853Z,13.47
2023-04-12T15:31:50.861Z,11.17
2023-04-12T15:34:18.574Z,12.77
2023-04-12T15:36:46.364Z,11.50
2023-04-12T15:39:15.225Z,16.90
2023-04-12T15:41:43.507Z,12.27
2023-04-12T15:44:14.487Z,12.80
2023-04-12T15:46:43.487Z,12.70
2023-04-12T15:49:11.186Z,13.37
2023-04-12T15:51:38.941Z,13.37
2023-04-12T15:54:07.127Z,14.87
2023-04-12T15:56:35.603Z,15.90
2023-04-12T15:59:03.265Z,15.70
2023-04-12T16:01:30.967Z,16.20
2023-04-12T16:03:58.774Z,13.70
2023-04-12T16:06:26.783Z,14.73
2023-04-12T16:08:54.817Z,13.00
2023-04-12T16:11:23.799Z,17.57
2023-04-12T16:13:53.148Z,13.87
2023-04-12T16:16:23.324Z,15.67
2023-04-12T16:18:52.851Z,18.47
2023-04-12T16:21:20.719Z,18.40
2023-04-12T16:23:49.064Z,21.17
2023-04-12T16:26:22.084Z,15.13
2023-04-12T16:29:14.098Z,16.67
2023-04-12T16:31:42.445Z,14.07
2023-04-12T16:34:11.230Z,13.23
2023-04-12T16:36:39.395Z,11.13
2023-04-12T16:39:07.388Z,13.23
2023-04-12T16:41:35.562Z,11.63
2023-04-12T16:44:03.468Z,11.87
2023-04-12T16:46:31.664Z,12.60
2023-04-12T16:48:59.614Z,12.53
2023-04-12T16:51:37.153Z,9.87
2023-04-12T16:54:05.845Z,9.67
2023-04-12T16:56:33.422Z,8.93
2023-04-12T16:59:01.221Z,9.33
2023-04-12T17:01:29.054Z,9.77
2023-04-12T17:03:58.288Z,12.23
2023-04-12T17:06:28.092Z,12.27
2023-04-12T17:08:56.487Z,12.87
2023-04-12T17:11:24.427Z,12.73
2023-04-12T17:13:52.717Z,9.93
2023-04-12T17:16:20.927Z,11.37
2023-04-12T17:18:49.056Z,13.27
2023-04-12T17:21:17.358Z,10.27
2023-04-12T17:23:45.332Z,12.83
2023-04-12T17:26:13.361Z,12.63
2023-04-12T17:28:41.674Z,13.97
2023-04-12T17:31:10.201Z,9.30
2023-04-12T17:33:37.806Z,9.53
2023-04-12T17:36:11.347Z,11.97
2023-04-12T17:38:39.580Z,11.53
2023-04-12T17:41:09.759Z,11.10
2023-04-12T17:43:37.841Z,13.93
2023-04-12T17:46:07.319Z,9.80
2023-04-12T17:48:35.135Z,11.53
2023-04-12T17:51:03.275Z,11.33
2023-04-12T17:53:31.143Z,12.13
2023-04-12T17:55:59.316Z,14.40
2023-04-12T17:58:27.863Z,10.53
2023-04-12T18:00:55.374Z,12.13
2023-04-12T18:03:23.372Z,15.27
2023-04-12T18:05:50.988Z,11.13
2023-04-12T18:08:19.135Z,13.60
2023-04-12T18:10:47.450Z,11.63
2023-04-12T18:13:15.591Z,12.20
2023-04-12T18:15:43.757Z,12.23
2023-04-12T18:18:11.565Z,10.50
2023-04-12T18:20:39.812Z,12.90
2023-04-12T18:23:07.954Z,11.13
2023-04-12T18:25:35.777Z,16.67
2023-04-12T18:28:03.741Z,11.03
2023-04-12T18:30:31.642Z,14.07
2023-04-12T18:33:00.998Z,10.03
2023-04-12T18:35:30.680Z,11.63
2023-04-12T18:37:58.805Z,10.77
2023-04-12T18:40:27.453Z,10.30
2023-04-12T18:42:55.553Z,11.93
2023-04-12T18:45:23.984Z,11.87
2023-04-12T18:47:52.978Z,13.00
2023-04-12T18:50:21.120Z,11.13
2023-04-12T18:52:49.344Z,11.67
2023-04-12T18:55:18.678Z,8.80
2023-04-12T18:57:47.720Z,11.57
2023-04-12T19:00:19.956Z,15.40
2023-04-12T19:02:48.654Z,9.70
2023-04-12T19:05:17.670Z,10.87
2023-04-12T19:07:45.474Z,13.10
2023-04-12T19:10:14.526Z,10.80
2023-04-12T19:12:46.191Z,11.00
2023-04-12T19:15:19.653Z,11.63
2023-04-12T19:17:51.177Z,14.47
2023-04-12T19:20:20.766Z,16.17
2023-04-12T19:22:54.791Z,15.63
2023-04-12T19:25:32.072Z,12.90
2023-04-12T19:28:09.359Z,15.80
2023-04-12T19:30:40.791Z,9.60
2023-04-12T19:33:18.094Z,16.60
2023-04-12T19:35:51.047Z,13.23
2023-04-12T19:38:28.810Z,10.63
2023-04-12T19:41:02.987Z,9.10
2023-04-12T19:43:33.452Z,10.73
2023-04-12T19:46:07.346Z,11.80
2023-04-12T19:48:37.720Z,10.00
2023-04-12T19:51:13.250Z,13.70
2023-04-12T19:53:46.310Z,10.53
2023-04-12T19:56:21.373Z,13.70
2023-04-12T19:58:53.798Z,8.40
2023-04-12T20:01:31.663Z,13.33
2023-04-12T20:04:19.782Z,10.93
2023-04-12T20:06:50.715Z,9.60
2023-04-12T20:09:28.273Z,9.90
2023-04-12T20:12:03.723Z,13.87
2023-04-12T20:14:37.527Z,10.23
2023-04-12T20:17:10.548Z,10.00
2023-04-12T20:19:44.902Z,10.57
2023-04-12T20:22:16.237Z,10.57
2023-04-12T20:24:51.874Z,10.77
2023-04-12T20:27:26.131Z,12.67
2023-04-12T20:30:00.360Z,11.07
2023-04-12T20:32:35.902Z,15.77
2023-04-12T20:35:12.040Z,10.93
2023-04-12T20:37:47.809Z,12.63
2023-04-12T20:40:19.409Z,13.47
2023-04-12T20:42:54.003Z,15.00
2023-04-12T20:45:31.624Z,12.43
2023-04-12T20:48:05.058Z,11.43
2023-04-12T20:50:42.652Z,13.10
2023-04-12T20:53:37.496Z,13.03
2023-04-12T20:56:17.962Z,17.80
2023-04-12T20:59:02.344Z,13.10
2023-04-12T21:01:35.585Z,13.53
2023-04-12T21:04:06.961Z,13.53
2023-04-12T21:06:40.695Z,11.80
2023-04-12T21:09:10.516Z,9.50
2023-04-12T21:11:41.984Z,12.90
2023-04-12T21:14:36.114Z,10.33
2023-04-12T21:17:07.629Z,10.70
2023-04-12T21:19:42.109Z,10.33
2023-04-12T21:22:10.266Z,12.27
2023-04-12T21:24:38.647Z,12.43
2023-04-12T21:27:11.077Z,10.60
2023-04-12T21:29:41.873Z,11.90
2023-04-12T21:32:12.074Z,12.17
2023-04-12T21:34:41.851Z,16.37
2023-04-12T21:37:10.559Z,15.77
2023-04-12T21:39:39.546Z,14.10
2023-04-12T21:42:08.150Z,15.23
2023-04-12T21:44:42.550Z,14.83
2023-04-12T21:47:09.999Z,17.10
2023-04-12T21:49:48.943Z,16.30
2023-04-12T21:52:25.146Z,13.20
2023-04-12T21:54:52.870Z,13.18
2023-04-12T21:57:20.963Z,14.70
2023-04-12T22:00:23.129Z,11.83
2023-04-12T22:02:51.556Z,14.23
2023-04-12T22:05:19.718Z,13.73
2023-04-12T22:07:48.451Z,15.00
2023-04-12T22:10:16.353Z,15.83
2023-04-12T22:12:51.597Z,13.97
2023-04-12T22:15:23.822Z,15.27
2023-04-12T22:17:51.633Z,14.00
2023-04-12T22:20:19.421Z,14.50
2023-04-12T22:22:47.579Z,12.27
2023-04-12T22:25:15.892Z,15.67
2023-04-12T22:27:46.507Z,15.03
2023-04-12T22:30:15.920Z,17.43
2023-04-12T22:32:43.865Z,16.43
2023-04-12T22:35:11.927Z,15.57
2023-04-12T22:37:41.378Z,16.63
2023-04-12T22:40:14.875Z,16.83
2023-04-12T22:42:49.107Z,14.27
2023-04-12T22:45:17.001Z,18.47
2023-04-12T22:47:49.711Z,16.03
2023-04-12T22:50:17.310Z,15.43
2023-04-12T22:52:45.314Z,14.47
2023-04-12T22:55:14.438Z,17.93
2023-04-12T22:57:50.997Z,16.17
2023-04-12T23:00:19.256Z,17.02
2023-04-12T23:02:47.864Z,22.50
2023-04-12T23:05:16.434Z,17.13
2023-04-12T23:07:44.159Z,16.43
2023-04-12T23:10:12.454Z,17.97
2023-04-12T23:12:40.101Z,18.37
2023-04-12T23:15:10.185Z,16.77
2023-04-12T23:18:08.011Z,15.77
2023-04-12T23:20:36.461Z,15.10
2023-04-12T23:23:04.130Z,16.97
2023-04-12T23:25:41.835Z,19.93
2023-04-12T23:28:14.291Z,15.83
2023-04-12T23:30:49.135Z,16.07
2023-04-12T23:33:18.333Z,14.47
2023-04-12T23:35:46.416Z,20.40
2023-04-12T23:38:15.813Z,14.50
2023-04-12T23:40:43.590Z,15.60
2023-04-12T23:43:14.827Z,15.13
2023-04-12T23:45:42.474Z,15.20
2023-04-12T23:48:10.098Z,15.57
2023-04-12T23:50:38.420Z,16.50
2023-04-12T23:53:05.997Z,14.73
2023-04-12T23:55:33.518Z,15.63
2023-04-12T23:58:01.373Z,16.20
